Weather observations for the past three days for
INDEPENDENCE
Imperial (Metric)
Date Time (cdt) Wind (mph) Vis. (mi.) Weather Sky Cond. Temperature (ºF) Relative Humidity Wind Chill (°F) Heat Index (°F) Pressure Precipitation (in)
Air Dwpt 6 hour altimeter (in) sea level (mb) 1 hr 3 hr 6 hr
Max. Min.
03 01:55 S 6 10.00 Fair CLR 80.6 66.2 62% 83 29.93 0.0
03 01:35 S 8 10.00 Fair CLR 80.6 66.2 62% 83 29.92 0.0
03 01:15 S 9 10.00 Fair CLR 80.6 66.2 62% 83 29.92 0.0
03 00:55 S 9 10.00 Fair CLR 82.4 64.4 55% 84 29.92 0.0
03 00:35 SE 8 10.00 Fair CLR 80.6 64.4 58% 82 29.91 0.0
03 00:15 SE 7 10.00 Fair CLR 80.6 64.4 58% 82 29.91 0.0
02 23:55 S 8 10.00 Fair CLR 80.6 64.4 58% 82 29.91 0.0
02 23:35 S 6 10.00 Fair CLR 80.6 64.4 58% 82 29.91 0.0
02 23:15 S 8 10.00 Fair CLR 80.6 64.4 58% 82 29.91 0.0
02 22:55 S 6 10.00 Fair CLR 80.6 64.4 58% 82 29.91 0.0
02 22:35 S 6 10.00 Fair CLR 82.4 64.4 55% 84 29.91 0.0
02 22:15 S 7 10.00 Fair CLR 82.4 64.4 55% 84 29.91 0.0
02 21:55 S 6 10.00 Fair CLR 84.2 64.4 51% 86 29.91 0.0
02 21:35 S 7 10.00 Fair CLR 84.2 64.4 51% 86 29.91 0.0
02 21:15 S 7 10.00 Fair CLR 84.2 64.4 51% 86 29.9 0.0
02 20:55 S 7 10.00 Fair CLR 86 64.4 49% 87 29.9 0.0
02 20:35 S 7 10.00 Fair CLR 86 64.4 49% 87 29.89 0.0
02 20:15 S 6 10.00 Fair CLR 87.8 64.4 46% 89 29.88 0.0
02 19:55 S 8 10.00 Fair CLR 89.6 64.4 43% 91 29.88 0.0
02 19:35 S 8 10.00 Fair CLR 93.2 64.4 39% 95 29.89 0.0
02 19:15 S 10 10.00 Fair CLR 95 64.4 36% 97 29.89 0.0
02 18:55 S 12 10.00 Fair CLR 96.8 64.4 34% 99 29.88 0.0
02 18:35 S 12 G 18 10.00 Fair CLR 98.6 64.4 33% 101 29.88 0.0
02 18:15 S 13 10.00 Fair CLR 98.6 64.4 33% 101 29.89 0.0
02 17:55 S 14 10.00 Fair CLR 98.6 64.4 33% 101 29.89 0.0
02 17:35 S 16 10.00 Partly Cloudy SCT080 98.6 64.4 33% 101 29.89 0.0
02 17:15 S 15 G 23 10.00 Partly Cloudy SCT080 100.4 66.2 33% 105 29.89 0.0
02 16:55 SE 12 10.00 Fair CLR 100.4 64.4 31% 104 29.89 0.0
02 16:35 S 13 10.00 Partly Cloudy SCT080 98.6 64.4 33% 101 29.9 0.0
02 16:15 S 14 G 18 10.00 Partly Cloudy SCT080 102.2 64.4 29% 106 29.9 0.0
02 15:55 S 17 G 23 10.00 Fair CLR 102.2 62.6 27% 104 29.91 0.0
02 15:35 S 14 G 21 10.00 Fair CLR 102.2 64.4 29% 106 29.92 0.0
02 15:15 S 18 G 22 10.00 Fair CLR 102.2 64.4 29% 106 29.93 0.0
02 14:55 S 15 G 22 10.00 Fair CLR 102.2 62.6 27% 104 29.93 0.0
02 14:35 SW 17 G 25 10.00 Fair CLR 102.2 64.4 29% 106 29.94 0.0
02 14:15 S 15 G 20 10.00 Fair CLR 100.4 62.6 29% 102 29.95 0.0
02 13:55 SE 13 G 20 10.00 Fair CLR 100.4 64.4 31% 104 29.96 0.0
02 13:35 S 12 10.00 Fair CLR 100.4 64.4 31% 104 29.97 0.0
02 13:15 S 12 10.00 Fair CLR 98.6 64.4 33% 101 29.98 0.0
02 12:55 S 13 G 17 10.00 Fair CLR 98.6 64.4 33% 101 29.99 0.0
02 12:35 S 8 10.00 Fair CLR 96.8 68 39% 102 29.99 0.0
02 12:15 S 10 G 18 10.00 Fair CLR 96.8 68 39% 102 30 0.0
02 11:55 S 13 G 16 10.00 Fair CLR 96.8 68 39% 102 30 0.0
02 11:35 SW 14 10.00 Fair CLR 95 68 41% 100 30.01 0.0
02 11:15 S 13 10.00 Fair CLR 95 68 41% 100 30.02 0.0
02 10:55 S 13 10.00 Fair CLR 93.2 68 44% 98 30.02 0.0
02 10:35 S 16 10.00 Fair CLR 91.4 68 46% 96 30.02 0.0
02 10:15 S 16 10.00 Fair CLR 91.4 68 46% 96 30.02 0.0
02 09:55 S 16 G 23 10.00 Fair CLR 89.6 68 49% 93 30.02 0.0
02 09:35 S 16 10.00 Fair CLR 87.8 68 52% 91 30.02 0.0
02 09:15 S 14 G 17 10.00 Fair CLR 87.8 68 52% 91 30.02 0.0
02 08:55 S 14 10.00 Fair CLR 84.2 68 58% 87 30.02 0.0
02 08:35 S 9 10.00 Fair CLR 82.4 68 62% 85 30.02 0.0
02 08:15 S 7 10.00 Fair CLR 80.6 68 66% 83 30.02 0.0
02 07:55 S 8 10.00 NULL NULL 78.8 66.2 65% 81 30.02 0.0
02 07:30 S 7 10.00 Fair CLR 77 66.2 69% 79 30.01 0.0
02 07:10 S 8 10.00 Fair CLR 77 66.2 69% 79 30 0.0
02 06:50 S 8 10.00 Fair CLR 77 66.2 69% 79 29.99 0.0
02 06:30 S 8 10.00 Fair CLR 77 66.2 69% 79 29.99 0.0
02 06:10 S 8 10.00 Fair CLR 77 66.2 69% 79 29.99 0.0
02 05:50 S 7 10.00 Fair CLR 77 66.2 69% 79 29.99 0.0
02 05:30 S 8 10.00 Fair CLR 77 66.2 69% 79 29.99 0.0
02 05:10 S 8 10.00 Fair CLR 78.8 66.2 65% 81 29.98 0.0
02 04:50 S 8 10.00 Fair CLR 80.6 64.4 58% 82 29.98 0.0
02 04:30 S 10 10.00 Fair CLR 80.6 64.4 58% 82 29.97 0.0
02 04:10 S 10 10.00 Fair CLR 78.8 64.4 61% 81 29.97 0.0
02 03:50 S 8 10.00 Fair CLR 77 66.2 69% 79 29.97 0.0
02 03:30 S 8 10.00 Fair CLR 78.8 66.2 65% 81 29.96 0.0
02 03:10 S 9 10.00 Fair CLR 77 66.2 69% 79 29.96 0.0
02 02:50 S 6 10.00 Fair CLR 77 64.4 65% 79 29.96 0.0
02 02:30 S 7 10.00 Fair CLR 77 64.4 65% 79 29.96 0.0
02 02:10 S 7 10.00 Fair CLR 77 64.4 65% 79 29.96 0.0
02 01:50 S 8 10.00 Fair CLR 78.8 64.4 61% 81 29.96 0.0
02 01:30 S 8 10.00 Fair CLR 80.6 64.4 58% 82 29.96 0.0
02 01:10 SE 9 10.00 Fair CLR 80.6 64.4 58% 82 29.96 0.0
02 00:50 S 8 10.00 Fair CLR 78.8 64.4 61% 81 29.96 0.0
02 00:30 S 7 10.00 Fair CLR 78.8 64.4 61% 81 29.96 0.0
02 00:10 S 7 10.00 Fair CLR 78.8 62.6 58% 80 29.96 0.0
01 23:30 S 6 10.00 Fair CLR 80.6 62.6 54% 82 29.96 0.0
01 23:10 S 7 10.00 Fair CLR 80.6 62.6 54% 82 29.96 0.0
01 22:50 S 6 10.00 Fair CLR 80.6 62.6 54% 82 29.96 0.0
01 22:30 S 5 10.00 Fair CLR 80.6 62.6 54% 82 29.96 0.0
01 22:10 S 6 10.00 Fair CLR 82.4 62.6 51% 83 29.96 0.0
01 21:50 S 6 10.00 Fair CLR 82.4 62.6 51% 83 29.95 0.0
01 21:30 S 6 10.00 Fair CLR 84.2 62.6 48% 85 29.94 0.0
01 21:10 S 5 10.00 Fair CLR 84.2 62.6 48% 85 29.94 0.0
01 20:50 S 6 10.00 Fair CLR 86 62.6 46% 87 29.93 0.0
01 20:30 S 7 10.00 Fair CLR 86 62.6 46% 87 29.92 0.0
01 20:10 S 7 10.00 Fair CLR 87.8 62.6 43% 88 29.92 0.0
01 19:50 S 7 10.00 Fair CLR 89.6 62.6 41% 90 29.92 0.0
01 19:30 S 7 10.00 Fair CLR 91.4 60.8 36% 91 29.92 0.0
01 19:10 S 9 10.00 Fair CLR 95 60.8 32% 95 29.92 0.0
01 18:50 S 8 10.00 Fair CLR 96.8 62.6 32% 98 29.93 0.0
01 18:30 S 12 10.00 Fair CLR 98.6 62.6 31% 100 29.93 0.0
01 18:10 SE 15 10.00 Fair CLR 98.6 60.8 29% 99 29.93 0.0
01 17:50 S 14 10.00 Fair CLR 98.6 60.8 29% 99 29.93 0.0
01 17:30 S 14 10.00 Mostly Cloudy BKN100 100.4 62.6 29% 102 29.93 0.0
01 17:10 SE 14 10.00 Partly Cloudy SCT110 100.4 62.6 29% 102 29.93 0.0
01 16:50 S 13 10.00 Fair CLR 96.8 60.8 30% 97 29.94 0.0
01 16:30 S 14 10.00 Partly Cloudy SCT100 100.4 60.8 27% 101 29.94 0.0
01 16:10 S 14 10.00 Partly Cloudy SCT100 98.6 60.8 29% 99 29.94 0.0
01 15:50 SW 13 G 17 10.00 Partly Cloudy SCT090 102.2 60.8 26% 103 29.95 0.0
01 15:30 SW 6 10.00 Partly Cloudy SCT090 100.4 60.8 27% 101 29.96 0.0
01 15:10 S 15 G 24 10.00 Mostly Cloudy BKN090 102.2 60.8 26% 103 29.96 0.0
01 14:50 SW 6 10.00 Mostly Cloudy BKN090 98.6 60.8 29% 99 29.97 0.0
01 14:30 SW 12 10.00 Mostly Cloudy BKN090 100.4 60.8 27% 101 29.98 0.0
01 14:10 S 15 G 18 10.00 Mostly Cloudy BKN090 102.2 60.8 26% 103 29.98 0.0
01 13:50 S 8 G 21 10.00 Partly Cloudy SCT100 96.8 60.8 30% 97 29.99 0.0
01 13:30 S 13 10.00 Fair CLR 100.4 60.8 27% 101 30 0.0
01 13:10 S 15 G 20 10.00 Fair CLR 100.4 60.8 27% 101 30 0.0
01 12:50 SW 12 G 18 10.00 Fair CLR 98.6 60.8 29% 99 30.01 0.0
01 12:30 SW 9 10.00 Fair CLR 98.6 64.4 33% 101 30.02 0.0
01 12:10 S 10 10.00 Partly Cloudy SCT100 96.8 66.2 37% 100 30.04 0.0
01 11:50 SW 15 10.00 Overcast OVC100 96.8 66.2 37% 100 30.04 0.0
01 11:30 SW 13 G 16 10.00 Mostly Cloudy BKN100 96.8 66.2 37% 100 30.05 0.0
01 11:10 S 13 G 20 10.00 Fair CLR 95 66.2 39% 98 30.05 0.0
01 10:50 SW 13 10.00 Fair CLR 93.2 66.2 41% 96 30.05 0.0
01 10:30 SW 12 10.00 Fair CLR 93.2 66.2 41% 96 30.05 0.0
01 10:10 S 14 10.00 Fair CLR 91.4 66.2 44% 94 30.05 0.0
01 09:50 SW 14 10.00 Fair CLR 89.6 66.2 46% 92 30.05 0.0
01 09:30 S 14 10.00 Fair CLR 87.8 66.2 49% 90 30.05 0.0
01 09:10 S 14 10.00 Fair CLR 86 66.2 52% 88 30.05 0.0
01 08:50 S 10 10.00 Fair CLR 84.2 66.2 55% 87 30.05 0.0
01 08:30 S 7 10.00 Fair CLR 80.6 64.4 58% 82 30.06 0.0
01 08:10 S 5 10.00 Fair CLR 78.8 64.4 61% 81 30.05 0.0
01 07:50 S 3 10.00 Fair CLR 77 64.4 65% 79 30.05 0.0
01 07:30 Calm 10.00 Fair CLR 75.2 62.6 65% 77 30.04 0.0
01 07:10 S 3 10.00 Fair CLR 73.4 62.6 69% 30.03 0.0
01 06:50 S 5 10.00 Fair CLR 75.2 62.6 65% 77 30.03 0.0
01 06:30 S 8 10.00 Fair CLR 75.2 62.6 65% 77 30.02 0.0
01 06:10 S 7 10.00 Fair CLR 75.2 62.6 65% 77 30.01 0.0
01 05:50 S 8 10.00 Fair CLR 75.2 62.6 65% 77 30.01 0.0
01 05:30 S 6 10.00 Fair CLR 75.2 62.6 65% 77 30 0.0
01 05:10 S 5 10.00 Fair CLR 75.2 62.6 65% 77 30 0.0
01 04:50 S 7 10.00 Fair CLR 75.2 62.6 65% 77 29.99 0.0
01 04:30 S 7 10.00 Fair CLR 77 62.6 61% 79 29.99 0.0
01 04:10 S 5 10.00 Fair CLR 78.8 62.6 58% 80 29.99 0.0
01 03:50 S 5 10.00 Fair CLR 77 62.6 61% 79 29.98 0.0
01 03:30 S 7 10.00 Fair CLR 77 62.6 61% 79 29.98 0.0
01 03:10 S 8 10.00 Fair CLR 77 62.6 61% 79 29.98 0.0
01 02:50 S 8 10.00 Fair CLR 77 62.6 61% 79 29.98 0.0
01 02:30 S 8 10.00 Fair CLR 77 62.6 61% 79 29.98 0.0
01 02:10 S 7 10.00 Fair CLR 75.2 62.6 65% 77 29.98 0.0
01 01:50 S 8 10.00 Fair CLR 77 62.6 61% 79 29.98 0.0
01 01:30 S 7 10.00 Fair CLR 77 62.6 61% 79 29.98 0.0
01 01:10 S 7 10.00 Fair CLR 77 62.6 61% 79 29.99 0.0
01 00:50 S 6 10.00 Fair CLR 77 62.6 61% 79 29.98 0.0
01 00:30 S 5 10.00 Fair CLR 77 62.6 61% 79 29.98 0.0
01 00:10 S 6 10.00 Fair CLR 78.8 62.6 58% 80 29.98 0.0
31 23:50 S 6 10.00 Fair CLR 78.8 62.6 58% 80 29.97 0.0
31 23:30 S 8 10.00 Fair CLR 80.6 62.6 54% 82 29.97 0.0
31 23:10 S 7 10.00 Fair CLR 80.6 62.6 54% 82 29.97 0.0
31 22:50 S 7 10.00 Fair CLR 80.6 62.6 54% 82 29.97 0.0
31 22:30 S 7 10.00 Fair CLR 80.6 62.6 54% 82 29.97 0.0
31 22:10 S 7 10.00 Fair CLR 82.4 62.6 51% 83 29.96 0.0
31 21:50 S 6 10.00 Fair CLR 82.4 60.8 48% 83 29.96 0.0
31 21:30 SE 8 10.00 Fair CLR 84.2 60.8 45% 84 29.95 0.0
31 21:10 SE 9 10.00 Fair CLR 84.2 60.8 45% 84 29.95 0.0
31 20:50 SE 8 10.00 Fair CLR 86 60.8 43% 86 29.94 0.0
31 20:30 SE 9 10.00 Fair CLR 87.8 60.8 40% 88 29.94 0.0
31 20:10 SE 8 10.00 Fair CLR 87.8 60.8 40% 88 29.93 0.0
31 19:50 SE 10 10.00 Fair CLR 89.6 59 36% 89 29.93 0.0
31 19:30 S 8 10.00 Fair CLR 93.2 59 32% 93 29.93 0.0
31 19:10 S 9 10.00 Fair CLR 95 59 30% 94 29.93 0.0
31 18:30 S 15 10.00 Fair CLR 98.6 57.2 25% 98 29.93 0.0
31 18:10 S 13 10.00 Fair CLR 98.6 59 27% 98 29.93 0.0
31 17:50 S 12 10.00 Fair CLR 100.4 59 25% 100 29.93 0.0
31 17:30 S 13 10.00 Fair CLR 100.4 57.2 24% 100 29.93 0.0
31 17:10 S 15 10.00 Fair CLR 100.4 57.2 24% 100 29.93 0.0
31 16:50 S 15 G 20 10.00 Fair CLR 100.4 57.2 24% 100 29.93 0.0
31 16:30 S 13 10.00 Fair CLR 102.2 57.2 23% 102 29.93 0.0
31 16:10 S 9 G 21 10.00 Fair CLR 102.2 57.2 23% 102 29.93 0.0
31 15:50 S 13 G 23 10.00 Fair CLR 102.2 59 24% 102 29.95 0.0
31 15:30 S 16 G 22 10.00 Fair CLR 102.2 59 24% 102 29.95 0.0
31 15:10 S 20 G 25 10.00 Partly Cloudy SCT090 102.2 59 24% 102 29.95 0.0
31 14:50 S 16 10.00 Partly Cloudy SCT090 102.2 60.8 26% 103 29.96 0.0
31 14:30 S 18 10.00 Fair CLR 102.2 60.8 26% 103 29.96 0.0
31 14:10 S 9 G 22 10.00 Fair CLR 102.2 60.8 26% 103 29.97 0.0
31 13:50 S 9 G 24 10.00 Fair CLR 100.4 60.8 27% 101 29.98 0.0
31 13:30 SW 13 G 20 10.00 Fair CLR 100.4 60.8 27% 101 29.98 0.0
31 13:10 S 12 G 18 10.00 Fair CLR 100.4 62.6 29% 102 29.98 0.0
31 12:50 SW 13 G 20 10.00 Fair CLR 100.4 60.8 27% 101 29.99 0.0
31 12:30 SW 12 G 20 10.00 Fair CLR 100.4 62.6 29% 102 30 0.0
31 12:10 SW 16 G 23 10.00 Fair CLR 98.6 62.6 31% 100 30.01 0.0
31 11:50 S 14 G 20 10.00 Fair CLR 98.6 62.6 31% 100 30.01 0.0
31 11:30 SW 16 G 20 10.00 Fair CLR 96.8 64.4 34% 99 30.02 0.0
31 11:10 SW 13 G 17 10.00 Fair CLR 95 64.4 36% 97 30.02 0.0
31 10:50 S 14 10.00 Fair CLR 95 64.4 36% 97 30.02 0.0
31 10:30 S 13 10.00 Fair CLR 93.2 64.4 39% 95 30.02 0.0
31 10:10 S 14 10.00 Fair CLR 91.4 64.4 41% 93 30.02 0.0
31 09:50 S 13 G 17 10.00 Fair CLR 89.6 64.4 43% 91 30.02 0.0
31 09:30 S 14 10.00 Fair CLR 87.8 64.4 46% 89 30.02 0.0
31 09:10 S 14 10.00 Fair CLR 86 64.4 49% 87 30.02 0.0
31 08:50 S 9 10.00 Fair CLR 84.2 64.4 51% 86 30.02 0.0
31 08:30 S 12 10.00 Fair CLR 82.4 62.6 51% 83 30.02 0.0
31 08:10 S 10 10.00 Fair CLR 78.8 62.6 58% 80 30.01 0.0
31 07:50 S 8 10.00 Fair CLR 77 62.6 61% 79 30.01 0.0
31 07:30 S 6 10.00 Fair CLR 75.2 62.6 65% 77 30.01 0.0
31 07:10 S 6 10.00 Fair CLR 73.4 62.6 69% 30 0.0
31 06:50 S 7 10.00 Fair CLR 73.4 60.8 65% 29.99 0.0
31 06:30 S 6 10.00 Fair CLR 73.4 60.8 65% 29.99 0.0
31 06:10 S 9 10.00 Fair CLR 75.2 60.8 61% 77 29.98 0.0
31 05:50 S 9 10.00 Fair CLR 77 60.8 57% 79 29.97 0.0
31 05:30 S 10 10.00 Fair CLR 77 60.8 57% 79 29.97 0.0
31 05:10 S 10 10.00 Fair CLR 78.8 60.8 54% 80 29.96 0.0
31 04:50 S 12 10.00 Fair CLR 78.8 62.6 58% 80 29.95 0.0
31 04:30 S 13 10.00 Fair CLR 78.8 62.6 58% 80 29.95 0.0
31 04:10 S 13 10.00 Fair CLR 78.8 62.6 58% 80 29.95 0.0
31 03:50 S 12 10.00 Fair CLR 78.8 62.6 58% 80 29.94 0.0
31 03:30 S 10 10.00 Fair CLR 78.8 62.6 58% 80 29.95 0.0
31 03:10 S 9 10.00 Fair CLR 78.8 62.6 58% 80 29.94 0.0
31 02:50 S 9 10.00 Fair CLR 80.6 60.8 51% 81 29.94 0.0
31 02:30 S 12 10.00 Fair CLR 80.6 60.8 51% 81 29.94 0.0
31 02:10 S 8 10.00 Fair CLR 78.8 62.6 58% 80 29.94 0.0
Date Time (cdt) Wind (mph) Vis. (mi.) Weather Sky Cond. Air Dwpt Max. Min. Relative Humidity Wind Chill (°F) Heat Index (°F) altimeter (in) sea level (mb) 1 hr 3 hr 6 hr
6 hour
Temperature (ºF) Pressure Precipitation (in)